createdAt,value
2016-11-21T00:00:00.997Z,0
2016-11-21T00:01:00.960Z,0
2016-11-21T00:02:01.117Z,0
2016-11-21T00:03:01.414Z,0
2016-11-21T00:04:00.981Z,0
2016-11-21T00:05:01.586Z,0
2016-11-21T00:06:01.010Z,0
2016-11-21T00:07:01.170Z,0
2016-11-21T00:08:01.157Z,0
2016-11-21T00:09:01.420Z,0
2016-11-21T00:10:01.217Z,0
2016-11-21T00:11:00.996Z,0
2016-11-21T00:12:01.020Z,0
2016-11-21T00:13:00.981Z,0
2016-11-21T00:14:00.984Z,0
2016-11-21T00:15:01.236Z,0
2016-11-21T00:16:00.970Z,0
2016-11-21T00:17:00.962Z,0
2016-11-21T00:18:01.776Z,0
2016-11-21T00:19:01.088Z,0
2016-11-21T00:20:00.981Z,0
2016-11-21T00:21:01.783Z,0
2016-11-21T00:22:01.533Z,0
2016-11-21T00:23:01.438Z,0
2016-11-21T00:24:01.581Z,0
2016-11-21T00:25:01.485Z,0
2016-11-21T00:26:02.093Z,0
2016-11-21T00:27:02.519Z,0
2016-11-21T00:28:01.229Z,0
2016-11-21T00:29:01.304Z,0
2016-11-21T00:30:00.982Z,0
2016-11-21T00:31:02.340Z,0
2016-11-21T00:32:01.620Z,0
2016-11-21T00:33:01.517Z,0
2016-11-21T00:34:00.995Z,0
2016-11-21T00:35:01.379Z,0
2016-11-21T00:36:01.027Z,0
2016-11-21T00:37:01.070Z,0
2016-11-21T00:38:01.002Z,0
2016-11-21T00:39:01.013Z,0
2016-11-21T00:40:01.038Z,0
2016-11-21T00:41:01.083Z,0
2016-11-21T00:42:00.990Z,0
2016-11-21T00:43:01.033Z,0
2016-11-21T00:44:00.976Z,0
2016-11-21T00:45:01.011Z,0
2016-11-21T00:46:00.958Z,0
2016-11-21T00:47:00.989Z,0
2016-11-21T00:48:01.217Z,0
2016-11-21T00:49:00.950Z,0
2016-11-21T00:50:01.003Z,0
2016-11-21T00:51:00.996Z,0
2016-11-21T00:52:01.005Z,0
2016-11-21T00:53:01.007Z,0
2016-11-21T00:54:00.997Z,0
2016-11-21T00:55:00.961Z,0
2016-11-21T00:56:00.972Z,0
2016-11-21T00:57:00.976Z,0
2016-11-21T00:58:00.999Z,0
2016-11-21T00:59:00.936Z,0
2016-11-21T01:00:00.983Z,0
2016-11-21T01:01:01.019Z,0
2016-11-21T01:02:01.623Z,0
2016-11-21T01:03:01.636Z,0
2016-11-21T01:04:01.244Z,0
2016-11-21T01:05:00.999Z,0
2016-11-21T01:06:00.996Z,0
2016-11-21T01:07:01.728Z,0
2016-11-21T01:08:00.980Z,0
2016-11-21T01:09:01.148Z,0
2016-11-21T01:10:01.047Z,0
2016-11-21T01:11:01.028Z,0
2016-11-21T01:12:01.045Z,0
2016-11-21T01:13:00.995Z,0
2016-11-21T01:14:00.974Z,0
2016-11-21T01:15:01.003Z,0
2016-11-21T01:16:01.006Z,0
2016-11-21T01:17:01.040Z,0
2016-11-21T01:18:01.048Z,0
2016-11-21T01:19:01.013Z,0
2016-11-21T01:20:00.995Z,0
2016-11-21T01:21:01.106Z,0
2016-11-21T01:22:01.720Z,0
2016-11-21T01:23:01.550Z,0
2016-11-21T01:24:01.542Z,0
2016-11-21T01:25:01.534Z,0
2016-11-21T01:26:01.627Z,0
2016-11-21T01:27:01.766Z,0
2016-11-21T01:28:01.048Z,0
2016-11-21T01:29:01.444Z,0
2016-11-21T01:30:01.614Z,0
2016-11-21T01:31:01.196Z,0
2016-11-21T01:32:01.142Z,0
2016-11-21T01:33:01.036Z,0
2016-11-21T01:34:01.017Z,0
2016-11-21T01:35:01.030Z,0
2016-11-21T01:36:01.023Z,0
2016-11-21T01:37:01.005Z,0
2016-11-21T01:38:01.187Z,0
2016-11-21T01:39:01.050Z,0
2016-11-21T01:40:01.026Z,0
2016-11-21T01:41:01.008Z,0
2016-11-21T01:42:01.008Z,0
2016-11-21T01:43:01.063Z,0
2016-11-21T01:44:01.010Z,0
2016-11-21T01:45:01.004Z,0
2016-11-21T01:46:01.040Z,0
2016-11-21T01:47:01.043Z,0
2016-11-21T01:48:01.025Z,0
2016-11-21T01:49:01.041Z,0
2016-11-21T01:50:01.014Z,0
2016-11-21T01:51:01.023Z,0
2016-11-21T01:52:01.261Z,0
2016-11-21T01:53:01.043Z,0
2016-11-21T01:54:01.072Z,0
2016-11-21T01:55:01.037Z,0
2016-11-21T01:56:01.037Z,0
2016-11-21T01:57:01.050Z,0
2016-11-21T01:58:01.103Z,0
2016-11-21T01:59:01.050Z,0
2016-11-21T02:00:01.090Z,0
2016-11-21T02:01:01.049Z,0
2016-11-21T02:02:01.033Z,0
2016-11-21T02:03:01.043Z,0
2016-11-21T02:04:01.008Z,0
2016-11-21T02:05:01.119Z,0
2016-11-21T02:06:01.118Z,0
2016-11-21T02:07:01.089Z,0
2016-11-21T02:08:01.052Z,0
2016-11-21T02:09:01.059Z,0
2016-11-21T02:10:01.081Z,0
2016-11-21T02:11:01.075Z,0
2016-11-21T02:12:01.035Z,0
2016-11-21T02:13:01.065Z,0
2016-11-21T02:14:01.141Z,0
2016-11-21T02:15:01.193Z,0
2016-11-21T02:16:01.069Z,0
2016-11-21T02:17:01.033Z,0
2016-11-21T02:18:01.054Z,0
2016-11-21T02:19:01.041Z,0
2016-11-21T02:20:01.146Z,0
2016-11-21T02:21:01.081Z,0
2016-11-21T02:22:01.019Z,0
2016-11-21T02:23:01.081Z,0
2016-11-21T02:24:01.565Z,0
2016-11-21T02:25:01.565Z,0
2016-11-21T02:26:01.626Z,0
2016-11-21T02:27:01.602Z,0
2016-11-21T02:28:01.637Z,0
2016-11-21T02:29:01.034Z,0
2016-11-21T02:30:01.565Z,0
2016-11-21T02:31:01.034Z,0
2016-11-21T02:32:01.447Z,0
2016-11-21T02:33:01.035Z,0
2016-11-21T02:34:01.680Z,0
2016-11-21T02:35:01.106Z,0
2016-11-21T02:36:01.606Z,0
2016-11-21T02:37:01.030Z,0
2016-11-21T02:38:01.507Z,0
2016-11-21T02:39:01.104Z,0
2016-11-21T02:40:01.144Z,0
2016-11-21T02:41:01.557Z,0
2016-11-21T02:42:01.096Z,0
2016-11-21T02:43:01.090Z,0
2016-11-21T02:44:01.035Z,0
2016-11-21T02:45:01.102Z,0
2016-11-21T02:46:01.085Z,0
2016-11-21T02:47:01.066Z,0
2016-11-21T02:48:01.163Z,0
2016-11-21T02:49:01.076Z,0
2016-11-21T02:50:01.114Z,0
2016-11-21T02:51:01.031Z,0
2016-11-21T02:52:01.079Z,0
2016-11-21T02:53:01.111Z,0
2016-11-21T02:54:01.074Z,0
2016-11-21T02:55:01.044Z,0
2016-11-21T02:56:01.131Z,0
2016-11-21T02:57:01.096Z,0
2016-11-21T02:58:01.090Z,0
2016-11-21T02:59:01.047Z,0
2016-11-21T03:00:01.074Z,0
2016-11-21T03:01:01.111Z,0
2016-11-21T03:02:01.093Z,0
2016-11-21T03:03:01.184Z,0
2016-11-21T03:04:01.099Z,0
2016-11-21T03:05:01.169Z,0
2016-11-21T03:06:01.131Z,0
2016-11-21T03:07:01.063Z,0
2016-11-21T03:08:01.144Z,0
2016-11-21T03:09:01.069Z,0
2016-11-21T03:10:01.064Z,0
2016-11-21T03:11:01.300Z,0
2016-11-21T03:12:01.099Z,0
2016-11-21T03:13:01.117Z,0
2016-11-21T03:14:01.155Z,0
2016-11-21T03:15:01.162Z,0
2016-11-21T03:16:01.099Z,0
2016-11-21T03:17:01.075Z,0
2016-11-21T03:18:01.092Z,0
2016-11-21T03:19:01.074Z,0
2016-11-21T03:20:01.082Z,0
2016-11-21T03:21:01.105Z,0
2016-11-21T03:22:01.120Z,0
2016-11-21T03:23:01.121Z,0
2016-11-21T03:24:01.068Z,0
2016-11-21T03:25:01.469Z,0
2016-11-21T03:26:01.563Z,0
2016-11-21T03:27:01.705Z,0
2016-11-21T03:28:01.883Z,0
2016-11-21T03:29:01.550Z,0
2016-11-21T03:30:01.502Z,0
2016-11-21T03:31:01.115Z,0
2016-11-21T03:32:01.558Z,0
2016-11-21T03:33:01.104Z,0
2016-11-21T03:34:01.558Z,0
2016-11-21T03:35:01.084Z,0
2016-11-21T03:36:01.583Z,0
2016-11-21T03:37:01.101Z,0
2016-11-21T03:38:02.123Z,0
2016-11-21T03:39:01.133Z,0
2016-11-21T03:40:01.208Z,0
2016-11-21T03:41:01.090Z,0
2016-11-21T03:42:01.105Z,0
2016-11-21T03:43:01.088Z,0
2016-11-21T03:44:01.120Z,0
2016-11-21T03:45:01.170Z,0
2016-11-21T03:46:01.120Z,0
2016-11-21T03:47:01.090Z,0
2016-11-21T03:48:01.089Z,0
2016-11-21T03:49:01.092Z,0
2016-11-21T03:50:01.088Z,0
2016-11-21T03:51:01.121Z,0
2016-11-21T03:52:01.134Z,0
2016-11-21T03:53:01.134Z,0
2016-11-21T03:54:01.242Z,0
2016-11-21T03:55:01.096Z,0
2016-11-21T03:56:01.091Z,0
2016-11-21T03:57:01.098Z,0
2016-11-21T03:58:01.117Z,0
2016-11-21T03:59:01.299Z,0
2016-11-21T04:00:01.112Z,0
2016-11-21T04:01:01.118Z,0
2016-11-21T04:02:01.136Z,0
2016-11-21T04:03:01.235Z,0
2016-11-21T04:04:01.152Z,0
2016-11-21T04:05:01.130Z,0
2016-11-21T04:06:01.137Z,0
2016-11-21T04:07:01.758Z,0
2016-11-21T04:08:01.123Z,0
2016-11-21T04:09:01.150Z,0
2016-11-21T04:10:01.143Z,0
2016-11-21T04:11:01.144Z,0
2016-11-21T04:12:01.120Z,0
2016-11-21T04:13:01.142Z,0
2016-11-21T04:14:01.124Z,0
2016-11-21T04:15:01.114Z,0
2016-11-21T04:16:01.146Z,0
2016-11-21T04:17:01.387Z,0
2016-11-21T04:18:01.134Z,0
2016-11-21T04:19:01.138Z,0
2016-11-21T04:20:01.129Z,0
2016-11-21T04:21:01.824Z,0
2016-11-21T04:22:01.148Z,0
2016-11-21T04:23:01.156Z,0
2016-11-21T04:24:01.127Z,0
2016-11-21T04:25:01.134Z,0
2016-11-21T04:26:01.128Z,0
2016-11-21T04:27:01.113Z,0
2016-11-21T04:28:01.286Z,0
2016-11-21T04:29:01.131Z,0
2016-11-21T04:30:01.436Z,0
2016-11-21T04:31:01.136Z,0
2016-11-21T04:32:01.136Z,0
2016-11-21T04:33:01.145Z,0
2016-11-21T04:34:01.187Z,0
2016-11-21T04:35:01.136Z,0
2016-11-21T04:36:01.171Z,0
2016-11-21T04:37:01.199Z,0
2016-11-21T04:38:01.328Z,0
2016-11-21T04:39:01.247Z,0
2016-11-21T04:40:01.171Z,0
2016-11-21T04:41:01.150Z,0
2016-11-21T04:42:01.170Z,0
2016-11-21T04:43:01.107Z,0
2016-11-21T04:44:01.203Z,0
2016-11-21T04:45:01.149Z,0
2016-11-21T04:46:01.270Z,0
2016-11-21T04:47:01.492Z,0
2016-11-21T04:48:01.233Z,0
2016-11-21T04:49:01.176Z,0
2016-11-21T04:50:01.150Z,0
2016-11-21T04:51:01.148Z,0
2016-11-21T04:52:01.136Z,0
2016-11-21T04:53:01.171Z,0
2016-11-21T04:54:01.148Z,0
2016-11-21T04:55:01.198Z,0
2016-11-21T04:56:01.200Z,0
2016-11-21T04:57:01.180Z,0
2016-11-21T04:58:01.187Z,0
2016-11-21T04:59:01.178Z,0
2016-11-21T05:00:01.150Z,0
2016-11-21T05:01:01.144Z,0
2016-11-21T05:02:01.175Z,0
2016-11-21T05:03:01.198Z,0
2016-11-21T05:04:01.247Z,0
2016-11-21T05:05:01.552Z,0
2016-11-21T05:06:01.225Z,0
2016-11-21T05:07:01.276Z,0
2016-11-21T05:08:01.181Z,0
2016-11-21T05:09:01.174Z,0
2016-11-21T05:10:01.236Z,0
2016-11-21T05:11:01.183Z,0
2016-11-21T05:12:01.178Z,0
2016-11-21T05:13:01.180Z,0
2016-11-21T05:14:01.857Z,0
2016-11-21T05:15:01.340Z,0
2016-11-21T05:16:01.310Z,0
2016-11-21T05:17:01.177Z,0
2016-11-21T05:18:01.161Z,0
2016-11-21T05:19:01.196Z,0
2016-11-21T05:20:01.184Z,0
2016-11-21T05:21:01.157Z,0
2016-11-21T05:22:01.180Z,0
2016-11-21T05:23:01.177Z,0
2016-11-21T05:24:01.500Z,0
2016-11-21T05:25:01.170Z,0
2016-11-21T05:26:01.240Z,0
2016-11-21T05:27:01.909Z,0
2016-11-21T05:28:01.833Z,0
2016-11-21T05:29:01.378Z,0
2016-11-21T05:30:01.767Z,0
2016-11-21T05:31:01.178Z,0
2016-11-21T05:32:01.212Z,0
2016-11-21T05:33:01.237Z,0
2016-11-21T05:34:01.234Z,0
2016-11-21T05:35:01.420Z,0
2016-11-21T05:36:01.513Z,0
2016-11-21T05:37:01.222Z,0
2016-11-21T05:38:01.213Z,0
2016-11-21T05:39:01.205Z,0
2016-11-21T05:40:01.248Z,0
2016-11-21T05:41:01.208Z,0
2016-11-21T05:42:01.180Z,0
2016-11-21T05:43:01.186Z,0
2016-11-21T05:44:01.208Z,0
2016-11-21T05:45:01.199Z,0
2016-11-21T05:46:01.208Z,0
2016-11-21T05:47:01.189Z,0
2016-11-21T05:48:01.196Z,0
2016-11-21T05:49:01.362Z,0
2016-11-21T05:50:01.202Z,0
2016-11-21T05:51:01.299Z,0
2016-11-21T05:52:01.215Z,0
2016-11-21T05:53:01.225Z,0
2016-11-21T05:54:01.232Z,0
2016-11-21T05:55:01.256Z,0
2016-11-21T05:56:01.313Z,0
2016-11-21T05:57:01.214Z,0
2016-11-21T05:58:01.222Z,0
2016-11-21T05:59:01.235Z,0
2016-11-21T06:00:01.974Z,0
2016-11-21T06:01:01.221Z,0
2016-11-21T06:02:01.297Z,0
2016-11-21T06:03:01.253Z,0
2016-11-21T06:04:01.234Z,0
2016-11-21T06:05:01.311Z,0
2016-11-21T06:06:01.231Z,0
2016-11-21T06:07:01.292Z,0
2016-11-21T06:08:01.222Z,0
2016-11-21T06:09:01.220Z,0
2016-11-21T06:10:01.260Z,0
2016-11-21T06:11:01.318Z,0
2016-11-21T06:12:01.236Z,0
2016-11-21T06:13:01.234Z,0
2016-11-21T06:14:01.239Z,0
2016-11-21T06:15:01.243Z,0
2016-11-21T06:16:01.283Z,0
2016-11-21T06:17:01.237Z,0
2016-11-21T06:18:01.238Z,0
2016-11-21T06:19:01.308Z,0
2016-11-21T06:20:01.276Z,0
2016-11-21T06:21:01.245Z,0
2016-11-21T06:22:01.234Z,0
2016-11-21T06:23:01.240Z,0
2016-11-21T06:24:01.279Z,0
2016-11-21T06:25:01.269Z,0
2016-11-21T06:26:01.270Z,0
2016-11-21T06:27:01.218Z,0
2016-11-21T06:28:01.250Z,0
2016-11-21T06:29:01.195Z,0
2016-11-21T06:30:01.219Z,0
2016-11-21T06:31:01.225Z,0
2016-11-21T06:32:01.231Z,0
2016-11-21T06:33:01.272Z,0
2016-11-21T06:34:01.241Z,4
2016-11-21T06:35:01.238Z,4
2016-11-21T06:36:01.263Z,4
2016-11-21T06:37:01.257Z,4
2016-11-21T06:38:01.276Z,4
2016-11-21T06:39:01.247Z,4
2016-11-21T06:40:01.263Z,12
2016-11-21T06:41:01.267Z,12
2016-11-21T06:42:01.264Z,12
2016-11-21T06:43:01.251Z,16
2016-11-21T06:44:01.271Z,24
2016-11-21T06:45:01.292Z,28
2016-11-21T06:46:01.285Z,36
2016-11-21T06:47:01.321Z,40
2016-11-21T06:48:01.758Z,44
2016-11-21T06:49:01.340Z,52
2016-11-21T06:50:01.289Z,60
2016-11-21T06:51:01.261Z,68
2016-11-21T06:52:01.277Z,76
2016-11-21T06:53:01.397Z,80
2016-11-21T06:54:01.267Z,88
2016-11-21T06:55:01.345Z,96
2016-11-21T06:56:01.318Z,112
2016-11-21T06:57:01.286Z,120
2016-11-21T06:58:01.281Z,144
2016-11-21T06:59:01.303Z,168
2016-11-21T07:00:01.303Z,192
2016-11-21T07:01:01.329Z,200
2016-11-21T07:02:01.307Z,196
2016-11-21T07:03:01.306Z,176
2016-11-21T07:04:01.308Z,160
2016-11-21T07:05:01.358Z,140
2016-11-21T07:06:01.356Z,120
2016-11-21T07:07:01.321Z,120
2016-11-21T07:08:01.318Z,136
2016-11-21T07:09:01.280Z,140
2016-11-21T07:10:01.315Z,136
2016-11-21T07:11:01.286Z,128
2016-11-21T07:12:01.277Z,128
2016-11-21T07:13:01.282Z,136
2016-11-21T07:14:01.313Z,156
2016-11-21T07:15:01.285Z,164
2016-11-21T07:16:01.320Z,168
2016-11-21T07:17:01.339Z,188
2016-11-21T07:18:01.331Z,224
2016-11-21T07:19:01.349Z,244
2016-11-21T07:20:01.317Z,280
2016-11-21T07:21:01.280Z,304
2016-11-21T07:22:01.352Z,324
2016-11-21T07:23:01.327Z,356
2016-11-21T07:24:01.323Z,352
2016-11-21T07:25:01.350Z,332
2016-11-21T07:26:01.307Z,348
2016-11-21T07:27:01.303Z,316
2016-11-21T07:28:02.187Z,288
2016-11-21T07:29:01.308Z,292
2016-11-21T07:30:01.308Z,328
2016-11-21T07:31:01.367Z,336
2016-11-21T07:32:01.314Z,356
2016-11-21T07:33:01.328Z,452
2016-11-21T07:34:01.260Z,568
2016-11-21T07:35:01.282Z,580
2016-11-21T07:36:01.346Z,560
2016-11-21T07:37:01.279Z,576
2016-11-21T07:38:01.313Z,604
2016-11-21T07:39:01.311Z,620
2016-11-21T07:40:01.291Z,620
2016-11-21T07:41:01.301Z,540
2016-11-21T07:42:01.304Z,504
2016-11-21T07:43:01.344Z,508
2016-11-21T07:44:01.468Z,532
2016-11-21T07:45:01.374Z,524
2016-11-21T07:46:01.359Z,556
2016-11-21T07:47:01.335Z,576
2016-11-21T07:48:01.311Z,540
2016-11-21T07:49:01.376Z,608
2016-11-21T07:50:02.553Z,700
2016-11-21T07:51:01.294Z,860
2016-11-21T07:52:01.317Z,968
2016-11-21T07:53:01.461Z,952
2016-11-21T07:54:01.362Z,1000
2016-11-21T07:55:01.296Z,1068
2016-11-21T07:56:01.487Z,1108
2016-11-21T07:57:01.337Z,1036
2016-11-21T07:58:01.375Z,1068
2016-11-21T07:59:01.346Z,944
2016-11-21T08:00:01.330Z,940
2016-11-21T08:01:01.313Z,1108
2016-11-21T08:02:01.333Z,1332
2016-11-21T08:03:01.343Z,1572
2016-11-21T08:04:01.420Z,1788
2016-11-21T08:05:01.343Z,1952
2016-11-21T08:06:02.066Z,1988
2016-11-21T08:07:01.497Z,1852
2016-11-21T08:08:01.385Z,1732
2016-11-21T08:09:01.417Z,1884
2016-11-21T08:10:01.397Z,2180
2016-11-21T08:11:01.398Z,2468
2016-11-21T08:12:01.392Z,2624
2016-11-21T08:13:01.346Z,2688
2016-11-21T08:14:01.348Z,2652
2016-11-21T08:15:01.343Z,2232
2016-11-21T08:16:01.391Z,1712
2016-11-21T08:17:01.340Z,1572
2016-11-21T08:18:01.348Z,1668
2016-11-21T08:19:01.376Z,1696
2016-11-21T08:20:01.321Z,1756
2016-11-21T08:21:01.386Z,1912
2016-11-21T08:22:01.375Z,2012
2016-11-21T08:23:01.366Z,2028
2016-11-21T08:24:01.425Z,2128
2016-11-21T08:25:01.385Z,2268
2016-11-21T08:26:01.372Z,2384
2016-11-21T08:27:01.372Z,2460
2016-11-21T08:28:01.345Z,2468
2016-11-21T08:29:01.392Z,2456
2016-11-21T08:30:01.345Z,2432
2016-11-21T08:31:01.958Z,2404
2016-11-21T08:32:01.356Z,2284
2016-11-21T08:33:01.363Z,2088
2016-11-21T08:34:01.405Z,2008
2016-11-21T08:35:01.366Z,2112
2016-11-21T08:36:01.388Z,2276
2016-11-21T08:37:01.340Z,2424
2016-11-21T08:38:01.354Z,2536
2016-11-21T08:39:01.376Z,2804
2016-11-21T08:40:01.416Z,2932
2016-11-21T08:41:01.421Z,2648
2016-11-21T08:42:01.431Z,2248
2016-11-21T08:43:01.401Z,1936
2016-11-21T08:44:01.355Z,1756
2016-11-21T08:45:01.373Z,1616
2016-11-21T08:46:01.350Z,1456
2016-11-21T08:47:01.370Z,1272
2016-11-21T08:48:01.369Z,1216
2016-11-21T08:49:01.629Z,1336
2016-11-21T08:50:01.365Z,1372
2016-11-21T08:51:01.380Z,1460
2016-11-21T08:52:01.410Z,1484
2016-11-21T08:53:01.379Z,1600
2016-11-21T08:54:01.374Z,1636
2016-11-21T08:55:01.414Z,1532
2016-11-21T08:56:01.430Z,1440
2016-11-21T08:57:01.393Z,1352
2016-11-21T08:58:01.374Z,1316
2016-11-21T08:59:01.435Z,1248
2016-11-21T09:00:01.384Z,1292
2016-11-21T09:01:01.424Z,1452
2016-11-21T09:02:01.528Z,1612
2016-11-21T09:03:01.418Z,1840
2016-11-21T09:04:01.872Z,1812
2016-11-21T09:05:01.434Z,1808
2016-11-21T09:06:02.463Z,2084
2016-11-21T09:07:02.590Z,2268
2016-11-21T09:08:01.768Z,2404
2016-11-21T09:09:02.347Z,2184
2016-11-21T09:10:02.199Z,2304
2016-11-21T09:11:02.072Z,2428
2016-11-21T09:12:02.937Z,2276
2016-11-21T09:13:01.434Z,2496
2016-11-21T09:14:02.433Z,2760
2016-11-21T09:15:01.384Z,2820
2016-11-21T09:16:01.745Z,2948
2016-11-21T09:17:01.444Z,2828
2016-11-21T09:18:01.426Z,2648
2016-11-21T09:19:01.701Z,2628
2016-11-21T09:20:01.399Z,2616
2016-11-21T09:21:01.496Z,3160
2016-11-21T09:22:02.084Z,3656
2016-11-21T09:23:02.064Z,4036
2016-11-21T09:24:01.453Z,4308
2016-11-21T09:25:01.741Z,4292
2016-11-21T09:26:02.256Z,3952
2016-11-21T09:27:02.379Z,3800
2016-11-21T09:28:01.399Z,3476
2016-11-21T09:29:01.431Z,3412
2016-11-21T09:30:01.418Z,3376
2016-11-21T09:31:01.715Z,3372
2016-11-21T09:32:01.395Z,3716
2016-11-21T09:33:01.933Z,4360
2016-11-21T09:34:01.529Z,4592
2016-11-21T09:35:01.437Z,4832
2016-11-21T09:36:01.390Z,4720
2016-11-21T09:37:01.434Z,4692
2016-11-21T09:38:01.449Z,4332
2016-11-21T09:39:01.398Z,3540
2016-11-21T09:40:02.545Z,3616
2016-11-21T09:41:01.383Z,3336
2016-11-21T09:42:02.233Z,3196
2016-11-21T09:43:02.193Z,2916
2016-11-21T09:44:02.740Z,2944
2016-11-21T09:45:01.915Z,2328
2016-11-21T09:46:02.190Z,2220
2016-11-21T09:47:02.700Z,2296
2016-11-21T09:48:02.449Z,2336
2016-11-21T09:49:01.470Z,2188
2016-11-21T09:50:01.500Z,2028
2016-11-21T09:51:02.460Z,2056
2016-11-21T09:52:01.449Z,2132
2016-11-21T09:53:02.717Z,2416
2016-11-21T09:54:02.582Z,2500
2016-11-21T09:55:01.479Z,2528
2016-11-21T09:56:01.876Z,2508
2016-11-21T09:57:01.502Z,2472
2016-11-21T09:58:01.506Z,2440
2016-11-21T09:59:01.487Z,2680
2016-11-21T10:00:01.466Z,2700
2016-11-21T10:01:01.427Z,2924
2016-11-21T10:02:01.403Z,3260
2016-11-21T10:03:01.399Z,2932
2016-11-21T10:04:01.443Z,2672
2016-11-21T10:05:01.482Z,2944
2016-11-21T10:06:01.471Z,2772
2016-11-21T10:07:01.465Z,2828
2016-11-21T10:08:01.447Z,3064
2016-11-21T10:09:01.454Z,4040
2016-11-21T10:10:01.459Z,4760
2016-11-21T10:11:01.438Z,5048
2016-11-21T10:12:01.589Z,4772
2016-11-21T10:13:01.456Z,4164
2016-11-21T10:14:01.467Z,4064
2016-11-21T10:15:01.564Z,3972
2016-11-21T10:16:01.522Z,3880
2016-11-21T10:17:01.481Z,3660
2016-11-21T10:18:01.515Z,3572
2016-11-21T10:19:01.481Z,3340
2016-11-21T10:20:01.503Z,3288
2016-11-21T10:21:01.469Z,2496
2016-11-21T10:22:01.478Z,2796
2016-11-21T10:23:01.457Z,2236
2016-11-21T10:24:01.603Z,2264
2016-11-21T10:25:02.355Z,2044
2016-11-21T10:26:01.462Z,2000
2016-11-21T10:27:01.502Z,2464
2016-11-21T10:28:01.535Z,1944
2016-11-21T10:29:01.460Z,2660
2016-11-21T10:30:01.501Z,1552
2016-11-21T10:31:01.506Z,1900
2016-11-21T10:32:01.482Z,2268
2016-11-21T10:33:01.492Z,1804
2016-11-21T10:34:01.449Z,2304
2016-11-21T10:35:01.479Z,1960
2016-11-21T10:36:01.457Z,2064
2016-11-21T10:37:01.465Z,1804
2016-11-21T10:38:01.442Z,2444
2016-11-21T10:39:01.474Z,3060
2016-11-21T10:40:01.534Z,2256
2016-11-21T10:41:01.477Z,2460
2016-11-21T10:42:01.469Z,2424
2016-11-21T10:43:01.474Z,2380
2016-11-21T10:44:01.443Z,2400
2016-11-21T10:45:01.504Z,2172
2016-11-21T10:46:01.481Z,2168
2016-11-21T10:47:01.445Z,2384
2016-11-21T10:48:01.475Z,2476
2016-11-21T10:49:01.476Z,2420
2016-11-21T10:50:01.724Z,2840
2016-11-21T10:51:01.545Z,3472
2016-11-21T10:52:01.465Z,3120
2016-11-21T10:53:01.530Z,2928
2016-11-21T10:54:01.492Z,2916
2016-11-21T10:55:01.525Z,2752
2016-11-21T10:56:01.473Z,3136
2016-11-21T10:57:01.458Z,2892
2016-11-21T10:58:01.527Z,3116
2016-11-21T10:59:01.472Z,3316
2016-11-21T11:00:01.613Z,3332
2016-11-21T11:01:01.475Z,3480
2016-11-21T11:02:01.485Z,3292
2016-11-21T11:03:01.527Z,3560
2016-11-21T11:04:01.564Z,4100
2016-11-21T11:05:01.465Z,4376
2016-11-21T11:06:01.541Z,4452
2016-11-21T11:07:01.509Z,5324
2016-11-21T11:08:01.457Z,5904
2016-11-21T11:09:01.481Z,5384
2016-11-21T11:10:01.514Z,5216
2016-11-21T11:11:01.495Z,4808
2016-11-21T11:12:02.650Z,4624
2016-11-21T11:13:01.506Z,4552
2016-11-21T11:14:01.515Z,4404
2016-11-21T11:15:01.477Z,4364
2016-11-21T11:16:01.484Z,3676
2016-11-21T11:17:01.479Z,3556
2016-11-21T11:18:01.569Z,3724
2016-11-21T11:19:01.497Z,3620
2016-11-21T11:20:02.799Z,3512
2016-11-21T11:21:01.558Z,3896
2016-11-21T11:22:01.570Z,4168
2016-11-21T11:23:02.162Z,4652
2016-11-21T11:24:01.572Z,5116
2016-11-21T11:25:02.852Z,4932
2016-11-21T11:26:01.510Z,5200
2016-11-21T11:27:01.711Z,5376
2016-11-21T11:28:01.626Z,5112
2016-11-21T11:29:01.503Z,4980
2016-11-21T11:30:01.498Z,4832
2016-11-21T11:31:01.495Z,4376
2016-11-21T11:32:01.855Z,4056
2016-11-21T11:33:01.626Z,3916
2016-11-21T11:34:01.548Z,3628
2016-11-21T11:35:02.410Z,3524
2016-11-21T11:36:01.628Z,3304
2016-11-21T11:37:01.578Z,3304
2016-11-21T11:38:01.500Z,3676
2016-11-21T11:39:01.530Z,3780
2016-11-21T11:40:01.750Z,3764
2016-11-21T11:41:01.556Z,3420
2016-11-21T11:42:01.580Z,3164
2016-11-21T11:43:01.582Z,3144
2016-11-21T11:44:01.722Z,3428
2016-11-21T11:45:01.776Z,3580
2016-11-21T11:46:01.594Z,3564
2016-11-21T11:47:01.538Z,3584
2016-11-21T11:48:01.676Z,3656
2016-11-21T11:49:01.551Z,3424
2016-11-21T11:50:01.769Z,3452
2016-11-21T11:51:01.559Z,3144
2016-11-21T11:52:01.699Z,3008
2016-11-21T11:53:01.549Z,2800
2016-11-21T11:54:01.573Z,2800
2016-11-21T11:55:01.706Z,2536
2016-11-21T11:56:01.541Z,2236
2016-11-21T11:57:01.585Z,2112
2016-11-21T11:58:01.817Z,2044
2016-11-21T11:59:01.554Z,2060
2016-11-21T12:00:01.676Z,2180
2016-11-21T12:01:01.516Z,2368
2016-11-21T12:02:01.670Z,2436
2016-11-21T12:03:01.545Z,2616
2016-11-21T12:04:01.700Z,2656
2016-11-21T12:05:01.622Z,2656
2016-11-21T12:06:01.583Z,2656
2016-11-21T12:07:01.568Z,2604
2016-11-21T12:08:01.532Z,2568
2016-11-21T12:09:01.670Z,2564
2016-11-21T12:10:01.649Z,2548
2016-11-21T12:11:01.642Z,2516
2016-11-21T12:12:01.561Z,2600
2016-11-21T12:13:01.562Z,2572
2016-11-21T12:14:01.628Z,2464
2016-11-21T12:15:01.549Z,2520
2016-11-21T12:16:01.557Z,2636
2016-11-21T12:17:01.609Z,2672
2016-11-21T12:18:01.623Z,2580
2016-11-21T12:19:01.578Z,2532
2016-11-21T12:20:01.645Z,2500
2016-11-21T12:21:01.548Z,2568
2016-11-21T12:22:01.559Z,2676
2016-11-21T12:23:01.559Z,2856
2016-11-21T12:24:01.588Z,3096
2016-11-21T12:25:01.563Z,3384
2016-11-21T12:26:01.616Z,3296
2016-11-21T12:27:02.286Z,3508
2016-11-21T12:28:01.583Z,3672
2016-11-21T12:29:02.532Z,3288
2016-11-21T12:30:02.754Z,3288
2016-11-21T12:31:01.556Z,3196
2016-11-21T12:32:01.963Z,3408
2016-11-21T12:33:02.656Z,3856
2016-11-21T12:34:01.914Z,4080
2016-11-21T12:35:01.967Z,4320
2016-11-21T12:36:02.048Z,4496
2016-11-21T12:37:01.671Z,4564
2016-11-21T12:38:01.614Z,4516
2016-11-21T12:39:02.916Z,4312
2016-11-21T12:40:02.767Z,3928
2016-11-21T12:41:02.656Z,3696
2016-11-21T12:42:02.265Z,3920
2016-11-21T12:43:02.026Z,4056
2016-11-21T12:44:02.782Z,4044
2016-11-21T12:45:01.755Z,3724
2016-11-21T12:46:01.767Z,3684
2016-11-21T12:47:02.297Z,3672
2016-11-21T12:48:01.664Z,3460
2016-11-21T12:49:02.634Z,3340
2016-11-21T12:50:01.642Z,3360
2016-11-21T12:51:01.935Z,3684
2016-11-21T12:52:01.620Z,4260
2016-11-21T12:53:02.377Z,4320
2016-11-21T12:54:01.667Z,4380
2016-11-21T12:55:02.162Z,4572
2016-11-21T12:56:01.658Z,4348
2016-11-21T12:57:01.662Z,3912
2016-11-21T12:58:01.631Z,3988
2016-11-21T12:59:01.651Z,4100
2016-11-21T13:00:01.626Z,4112
2016-11-21T13:01:02.019Z,4224
2016-11-21T13:02:01.632Z,4236
2016-11-21T13:03:01.699Z,4224
2016-11-21T13:04:01.599Z,4292
2016-11-21T13:05:02.619Z,4452
2016-11-21T13:06:01.619Z,4588
2016-11-21T13:07:01.622Z,4712
2016-11-21T13:08:02.859Z,4816
2016-11-21T13:09:02.659Z,4928
2016-11-21T13:10:01.685Z,5048
2016-11-21T13:11:01.651Z,5164
2016-11-21T13:12:01.654Z,5124
2016-11-21T13:13:02.395Z,4992
2016-11-21T13:14:01.586Z,4896
2016-11-21T13:15:01.600Z,4748
2016-11-21T13:16:01.619Z,4600
2016-11-21T13:17:01.656Z,4448
2016-11-21T13:18:01.616Z,4188
2016-11-21T13:19:01.654Z,3860
2016-11-21T13:20:01.578Z,3564
2016-11-21T13:21:03.949Z,3380
2016-11-21T13:22:01.674Z,3356
2016-11-21T13:23:02.006Z,3544
2016-11-21T13:24:01.620Z,3996
2016-11-21T13:25:01.657Z,4444
2016-11-21T13:26:01.675Z,4928
2016-11-21T13:27:01.638Z,5420
2016-11-21T13:28:02.449Z,5576
2016-11-21T13:29:01.614Z,5380
2016-11-21T13:30:02.820Z,5004
2016-11-21T13:31:01.971Z,4592
2016-11-21T13:32:01.611Z,4228
2016-11-21T13:33:01.614Z,3952
2016-11-21T13:34:01.657Z,3756
2016-11-21T13:35:01.597Z,3584
2016-11-21T13:36:01.626Z,3508
2016-11-21T13:37:01.707Z,3520
2016-11-21T13:38:03.291Z,3736
2016-11-21T13:39:01.640Z,3972
2016-11-21T13:40:01.901Z,4152
2016-11-21T13:41:01.592Z,4200
2016-11-21T13:42:03.936Z,4136
2016-11-21T13:43:01.761Z,4052
2016-11-21T13:44:02.606Z,3896
2016-11-21T13:45:02.224Z,3800
2016-11-21T13:46:01.630Z,3736
2016-11-21T13:47:01.681Z,3604
2016-11-21T13:48:01.629Z,3356
2016-11-21T13:49:01.992Z,2944
2016-11-21T13:50:01.645Z,2340
2016-11-21T13:51:01.614Z,1756
2016-11-21T13:52:02.128Z,1440
2016-11-21T13:53:01.617Z,1396
2016-11-21T13:54:01.622Z,1500
2016-11-21T13:55:01.658Z,1516
2016-11-21T13:56:01.662Z,1484
2016-11-21T13:57:01.614Z,1416
2016-11-21T13:58:01.666Z,1344
2016-11-21T13:59:01.675Z,1352
2016-11-21T14:00:01.659Z,1400
2016-11-21T14:01:01.639Z,1348